sensor_id;sensor_type;location;lat;lon;timestamp;pressure;altitude;pressure_sealevel;temperature;humidity
51617;BME280;37697;52.588;13.394;2024-01-10T00:02:17;103040.84;;;-9.94;86.56
51617;BME280;37697;52.588;13.394;2024-01-10T00:07:43;103034.23;;;-9.96;86.29
51617;BME280;37697;52.588;13.394;2024-01-10T00:13:09;103032.80;;;-9.98;86.33
51617;BME280;37697;52.588;13.394;2024-01-10T00:18:34;103034.23;;;-9.98;86.44
51617;BME280;37697;52.588;13.394;2024-01-10T00:23:52;103028.22;;;-10.01;86.32
51617;BME280;37697;52.588;13.394;2024-01-10T00:29:11;103022.10;;;-10.02;86.19
51617;BME280;37697;52.588;13.394;2024-01-10T00:34:37;103018.98;;;-10.05;86.03
51617;BME280;37697;52.588;13.394;2024-01-10T00:40:03;103011.39;;;-10.14;86.17
51617;BME280;37697;52.588;13.394;2024-01-10T00:45:29;103005.40;;;-10.15;86.40
51617;BME280;37697;52.588;13.394;2024-01-10T00:50:54;103004.51;;;-10.15;86.30
51617;BME280;37697;52.588;13.394;2024-01-10T00:56:20;103000.58;;;-10.17;86.58
51617;BME280;37697;52.588;13.394;2024-01-10T01:01:46;102990.21;;;-10.18;86.54
51617;BME280;37697;52.588;13.394;2024-01-10T01:07:12;102993.92;;;-10.20;86.59
51617;BME280;37697;52.588;13.394;2024-01-10T01:12:37;102996.76;;;-10.20;86.80
51617;BME280;37697;52.588;13.394;2024-01-10T01:18:03;102996.58;;;-10.23;86.86
51617;BME280;37697;52.588;13.394;2024-01-10T01:23:29;102999.04;;;-10.25;86.73
51617;BME280;37697;52.588;13.394;2024-01-10T01:28:55;102995.50;;;-10.27;86.81
51617;BME280;37697;52.588;13.394;2024-01-10T01:34:19;102996.03;;;-10.32;86.96
51617;BME280;37697;52.588;13.394;2024-01-10T01:39:45;102999.38;;;-10.34;87.03
51617;BME280;37697;52.588;13.394;2024-01-10T01:45:11;102992.55;;;-10.36;86.75
51617;BME280;37697;52.588;13.394;2024-01-10T01:50:37;102994.29;;;-10.40;87.12
51617;BME280;37697;52.588;13.394;2024-01-10T01:56:05;102988.66;;;-10.38;87.32
51617;BME280;37697;52.588;13.394;2024-01-10T02:01:31;102987.10;;;-10.39;86.84
51617;BME280;37697;52.588;13.394;2024-01-10T02:06:57;102983.53;;;-10.44;86.67
51617;BME280;37697;52.588;13.394;2024-01-10T02:12:23;102982.83;;;-10.48;87.19
51617;BME280;37697;52.588;13.394;2024-01-10T02:17:49;102985.22;;;-10.45;87.58
51617;BME280;37697;52.588;13.394;2024-01-10T02:23:07;102983.81;;;-10.42;87.74
51617;BME280;37697;52.588;13.394;2024-01-10T02:28:33;102992.05;;;-10.44;87.45
51617;BME280;37697;52.588;13.394;2024-01-10T02:33:59;102996.73;;;-10.44;87.45
51617;BME280;37697;52.588;13.394;2024-01-10T02:39:25;102997.73;;;-10.46;87.36
51617;BME280;37697;52.588;13.394;2024-01-10T02:44:43;102993.60;;;-10.45;87.76
51617;BME280;37697;52.588;13.394;2024-01-10T02:50:09;102985.52;;;-10.41;87.91
51617;BME280;37697;52.588;13.394;2024-01-10T02:55:35;102984.32;;;-10.37;88.12
51617;BME280;37697;52.588;13.394;2024-01-10T03:00:54;102981.55;;;-10.36;88.12
51617;BME280;37697;52.588;13.394;2024-01-10T03:06:13;102969.39;;;-10.35;88.13
51617;BME280;37697;52.588;13.394;2024-01-10T03:11:39;102962.78;;;-10.34;87.91
51617;BME280;37697;52.588;13.394;2024-01-10T03:17:04;102956.18;;;-10.44;87.58
51617;BME280;37697;52.588;13.394;2024-01-10T03:22:33;102952.91;;;-10.45;87.95
51617;BME280;37697;52.588;13.394;2024-01-10T03:27:59;102962.75;;;-10.43;87.92
51617;BME280;37697;52.588;13.394;2024-01-10T03:33:24;102974.32;;;-10.44;87.86
51617;BME280;37697;52.588;13.394;2024-01-10T03:38:50;102968.65;;;-10.49;87.67
51617;BME280;37697;52.588;13.394;2024-01-10T03:44:16;102965.70;;;-10.50;87.74
51617;BME280;37697;52.588;13.394;2024-01-10T03:49:41;102955.50;;;-10.54;87.69
51617;BME280;37697;52.588;13.394;2024-01-10T03:55:07;102956.39;;;-10.56;87.69
51617;BME280;37697;52.588;13.394;2024-01-10T04:00:33;102956.41;;;-10.62;87.33
51617;BME280;37697;52.588;13.394;2024-01-10T04:05:59;102946.49;;;-10.72;87.39
51617;BME280;37697;52.588;13.394;2024-01-10T04:11:25;102944.77;;;-10.73;87.86
51617;BME280;37697;52.588;13.394;2024-01-10T04:16:52;102936.98;;;-10.73;87.77
51617;BME280;37697;52.588;13.394;2024-01-10T04:22:18;102928.37;;;-10.77;87.67
51617;BME280;37697;52.588;13.394;2024-01-10T04:27:44;102926.08;;;-10.80;87.60
51617;BME280;37697;52.588;13.394;2024-01-10T04:33:09;102921.54;;;-10.86;87.38
51617;BME280;37697;52.588;13.394;2024-01-10T04:38:35;102924.21;;;-10.88;87.69
51617;BME280;37697;52.588;13.394;2024-01-10T04:44:01;102926.13;;;-10.90;87.37
51617;BME280;37697;52.588;13.394;2024-01-10T04:49:27;102932.65;;;-10.90;88.02
51617;BME280;37697;52.588;13.394;2024-01-10T04:54:51;102932.17;;;-10.91;88.47
51617;BME280;37697;52.588;13.394;2024-01-10T05:00:11;102936.86;;;-10.92;87.92
51617;BME280;37697;52.588;13.394;2024-01-10T05:05:17;102940.04;;;-10.94;88.25
51617;BME280;37697;52.588;13.394;2024-01-10T05:10:43;102936.02;;;-10.95;88.10
51617;BME280;37697;52.588;13.394;2024-01-10T05:16:09;102933.04;;;-10.98;88.64
51617;BME280;37697;52.588;13.394;2024-01-10T05:21:35;102935.92;;;-10.98;88.74
51617;BME280;37697;52.588;13.394;2024-01-10T05:26:59;102940.84;;;-11.00;88.72
51617;BME280;37697;52.588;13.394;2024-01-10T05:32:25;102940.67;;;-11.02;88.44
51617;BME280;37697;52.588;13.394;2024-01-10T05:37:51;102940.25;;;-11.04;88.51
51617;BME280;37697;52.588;13.394;2024-01-10T05:43:17;102930.27;;;-11.07;88.34
51617;BME280;37697;52.588;13.394;2024-01-10T05:48:43;102930.13;;;-11.07;88.24
51617;BME280;37697;52.588;13.394;2024-01-10T05:54:09;102924.15;;;-11.13;88.22
51617;BME280;37697;52.588;13.394;2024-01-10T05:59:35;102924.23;;;-11.14;88.36
51617;BME280;37697;52.588;13.394;2024-01-10T06:05:01;102926.40;;;-11.15;88.12
51617;BME280;37697;52.588;13.394;2024-01-10T06:10:12;102928.89;;;-11.17;88.29
51617;BME280;37697;52.588;13.394;2024-01-10T06:15:41;102924.52;;;-11.18;88.70
51617;BME280;37697;52.588;13.394;2024-01-10T06:21:08;102917.20;;;-11.20;88.53
51617;BME280;37697;52.588;13.394;2024-01-10T06:26:34;102913.39;;;-11.24;88.66
51617;BME280;37697;52.588;13.394;2024-01-10T06:31:59;102907.42;;;-11.28;88.86
51617;BME280;37697;52.588;13.394;2024-01-10T06:37:25;102903.48;;;-11.27;88.77
51617;BME280;37697;52.588;13.394;2024-01-10T06:42:51;102908.41;;;-11.29;88.28
51617;BME280;37697;52.588;13.394;2024-01-10T06:48:17;102917.85;;;-11.30;88.44
51617;BME280;37697;52.588;13.394;2024-01-10T06:53:47;102918.17;;;-11.29;88.55
51617;BME280;37697;52.588;13.394;2024-01-10T06:59:05;102910.27;;;-11.30;88.34
51617;BME280;37697;52.588;13.394;2024-01-10T07:04:31;102907.54;;;-11.32;88.37
51617;BME280;37697;52.588;13.394;2024-01-10T07:09:57;102910.08;;;-11.32;88.88
51617;BME280;37697;52.588;13.394;2024-01-10T07:15:23;102910.64;;;-11.33;88.47
51617;BME280;37697;52.588;13.394;2024-01-10T07:20:43;102906.47;;;-11.31;88.52
51617;BME280;37697;52.588;13.394;2024-01-10T07:26:09;102901.64;;;-11.31;88.59
51617;BME280;37697;52.588;13.394;2024-01-10T07:31:35;102899.69;;;-11.31;88.43
51617;BME280;37697;52.588;13.394;2024-01-10T07:37:01;102901.48;;;-11.29;89.03
51617;BME280;37697;52.588;13.394;2024-01-10T07:42:27;102910.27;;;-11.25;89.13
51617;BME280;37697;52.588;13.394;2024-01-10T07:47:45;102920.92;;;-11.22;89.21
51617;BME280;37697;52.588;13.394;2024-01-10T07:53:11;102927.98;;;-11.19;89.81
51617;BME280;37697;52.588;13.394;2024-01-10T07:58:37;102931.48;;;-11.13;90.02
51617;BME280;37697;52.588;13.394;2024-01-10T08:04:03;102922.72;;;-11.05;90.18
51617;BME280;37697;52.588;13.394;2024-01-10T08:09:21;102914.83;;;-10.91;90.46
51617;BME280;37697;52.588;13.394;2024-01-10T08:14:26;102910.46;;;-10.77;90.96
51617;BME280;37697;52.588;13.394;2024-01-10T08:19:45;102918.48;;;-10.58;91.58
51617;BME280;37697;52.588;13.394;2024-01-10T08:25:11;102917.03;;;-10.31;91.91
51617;BME280;37697;52.588;13.394;2024-01-10T08:30:37;102922.59;;;-10.03;92.18
51617;BME280;37697;52.588;13.394;2024-01-10T08:36:09;102930.86;;;-9.70;92.38
51617;BME280;37697;52.588;13.394;2024-01-10T08:41:35;102934.88;;;-9.41;92.11
51617;BME280;37697;52.588;13.394;2024-01-10T08:47:01;102935.20;;;-9.15;91.82
51617;BME280;37697;52.588;13.394;2024-01-10T08:52:27;102937.80;;;-8.94;91.62
51617;BME280;37697;52.588;13.394;2024-01-10T08:57:52;102932.05;;;-8.77;91.04
51617;BME280;37697;52.588;13.394;2024-01-10T09:03:12;102930.73;;;-8.63;90.57
51617;BME280;37697;52.588;13.394;2024-01-10T09:08:38;102927.48;;;-8.51;89.87
51617;BME280;37697;52.588;13.394;2024-01-10T09:14:04;102930.39;;;-8.37;89.94
51617;BME280;37697;52.588;13.394;2024-01-10T09:19:29;102928.86;;;-8.20;89.88
51617;BME280;37697;52.588;13.394;2024-01-10T09:24:40;102928.34;;;-8.03;89.53
51617;BME280;37697;52.588;13.394;2024-01-10T09:30:07;102920.48;;;-7.82;89.45
51617;BME280;37697;52.588;13.394;2024-01-10T09:35:36;102924.20;;;-7.62;89.21
51617;BME280;37697;52.588;13.394;2024-01-10T09:41:05;102919.64;;;-7.40;89.13
51617;BME280;37697;52.588;13.394;2024-01-10T09:46:34;102922.40;;;-7.14;88.24
51617;BME280;37697;52.588;13.394;2024-01-10T09:52:03;102918.00;;;-6.90;87.31
51617;BME280;37697;52.588;13.394;2024-01-10T09:57:28;102912.42;;;-6.75;87.04
51617;BME280;37697;52.588;13.394;2024-01-10T10:02:55;102913.82;;;-6.61;86.81
51617;BME280;37697;52.588;13.394;2024-01-10T10:08:21;102909.96;;;-6.49;86.73
51617;BME280;37697;52.588;13.394;2024-01-10T10:13:47;102902.95;;;-6.29;85.88
51617;BME280;37697;52.588;13.394;2024-01-10T10:19:13;102901.55;;;-6.04;86.13
51617;BME280;37697;52.588;13.394;2024-01-10T10:24:49;102893.78;;;-5.72;85.71
51617;BME280;37697;52.588;13.394;2024-01-10T10:30:15;102887.48;;;-5.45;83.99
51617;BME280;37697;52.588;13.394;2024-01-10T10:35:41;102882.90;;;-5.21;84.01
51617;BME280;37697;52.588;13.394;2024-01-10T10:40:59;102876.06;;;-4.98;83.74
51617;BME280;37697;52.588;13.394;2024-01-10T10:46:28;102864.92;;;-4.73;84.38
51617;BME280;37697;52.588;13.394;2024-01-10T10:51:58;102868.66;;;-4.46;83.90
51617;BME280;37697;52.588;13.394;2024-01-10T10:57:26;102869.86;;;-4.30;80.92
51617;BME280;37697;52.588;13.394;2024-01-10T11:03:08;102874.55;;;-4.20;80.69
51617;BME280;37697;52.588;13.394;2024-01-10T11:08:38;102878.80;;;-4.00;80.16
51617;BME280;37697;52.588;13.394;2024-01-10T11:14:00;102878.02;;;-3.88;78.01
51617;BME280;37697;52.588;13.394;2024-01-10T11:19:53;102870.69;;;-3.76;75.93
51617;BME280;37697;52.588;13.394;2024-01-10T11:25:37;102866.91;;;-3.51;77.93
51617;BME280;37697;52.588;13.394;2024-01-10T11:30:57;102870.23;;;-3.26;77.55
51617;BME280;37697;52.588;13.394;2024-01-10T11:36:19;102868.04;;;-3.12;74.92
51617;BME280;37697;52.588;13.394;2024-01-10T11:41:48;102863.95;;;-3.06;72.16
51617;BME280;37697;52.588;13.394;2024-01-10T11:47:14;102858.58;;;-2.94;73.23
51617;BME280;37697;52.588;13.394;2024-01-10T11:52:39;102851.98;;;-2.68;74.53
51617;BME280;37697;52.588;13.394;2024-01-10T11:58:11;102844.66;;;-2.39;75.09
51617;BME280;37697;52.588;13.394;2024-01-10T12:03:31;102839.10;;;-2.17;71.73
51617;BME280;37697;52.588;13.394;2024-01-10T12:09:18;102838.16;;;-2.14;68.26
51617;BME280;37697;52.588;13.394;2024-01-10T12:14:37;102830.27;;;-2.10;68.71
51617;BME280;37697;52.588;13.394;2024-01-10T12:19:56;102825.44;;;-2.09;66.96
51617;BME280;37697;52.588;13.394;2024-01-10T12:25:17;102817.44;;;-1.97;69.29
51617;BME280;37697;52.588;13.394;2024-01-10T12:30:34;102809.30;;;-1.92;67.53
51617;BME280;37697;52.588;13.394;2024-01-10T12:36:03;102805.01;;;-1.84;67.51
51617;BME280;37697;52.588;13.394;2024-01-10T12:41:20;102801.41;;;-1.77;68.08
51617;BME280;37697;52.588;13.394;2024-01-10T12:46:51;102799.02;;;-1.72;68.16
51617;BME280;37697;52.588;13.394;2024-01-10T12:52:17;102794.63;;;-1.71;66.34
51617;BME280;37697;52.588;13.394;2024-01-10T12:57:34;102794.69;;;-1.67;65.38
51617;BME280;37697;52.588;13.394;2024-01-10T13:03:00;102786.66;;;-1.61;66.92
51617;BME280;37697;52.588;13.394;2024-01-10T13:08:19;102788.92;;;-1.56;66.62
51617;BME280;37697;52.588;13.394;2024-01-10T13:13:45;102788.78;;;-1.48;66.84
51617;BME280;37697;52.588;13.394;2024-01-10T13:19:10;102785.76;;;-1.47;65.80
51617;BME280;37697;52.588;13.394;2024-01-10T13:24:45;102783.27;;;-1.55;65.17
51617;BME280;37697;52.588;13.394;2024-01-10T13:30:11;102783.15;;;-1.57;65.00
51617;BME280;37697;52.588;13.394;2024-01-10T13:35:37;102779.91;;;-1.59;64.93
51617;BME280;37697;52.588;13.394;2024-01-10T13:40:46;102779.38;;;-1.60;63.97
51617;BME280;37697;52.588;13.394;2024-01-10T13:46:12;102783.04;;;-1.64;64.71
51617;BME280;37697;52.588;13.394;2024-01-10T13:51:28;102777.17;;;-1.73;62.67
51617;BME280;37697;52.588;13.394;2024-01-10T13:56:54;102768.74;;;-1.81;64.73
51617;BME280;37697;52.588;13.394;2024-01-10T14:02:19;102770.13;;;-1.88;63.68
51617;BME280;37697;52.588;13.394;2024-01-10T14:07:45;102769.52;;;-1.94;64.68
51617;BME280;37697;52.588;13.394;2024-01-10T14:13:11;102769.23;;;-1.99;64.19
51617;BME280;37697;52.588;13.394;2024-01-10T14:18:36;102769.10;;;-2.09;64.17
51617;BME280;37697;52.588;13.394;2024-01-10T14:23:52;102757.44;;;-2.21;64.03
51617;BME280;37697;52.588;13.394;2024-01-10T14:29:18;102755.10;;;-2.29;65.33
51617;BME280;37697;52.588;13.394;2024-01-10T14:34:44;102756.29;;;-2.37;65.09
51617;BME280;37697;52.588;13.394;2024-01-10T14:40:09;102753.13;;;-2.48;65.66
51617;BME280;37697;52.588;13.394;2024-01-10T14:45:34;102752.42;;;-2.54;66.54
51617;BME280;37697;52.588;13.394;2024-01-10T14:51:00;102757.42;;;-2.62;67.26
51617;BME280;37697;52.588;13.394;2024-01-10T14:56:27;102757.95;;;-2.74;66.98
51617;BME280;37697;52.588;13.394;2024-01-10T15:01:52;102755.88;;;-2.83;67.15
51617;BME280;37697;52.588;13.394;2024-01-10T15:07:18;102752.83;;;-2.90;67.86
51617;BME280;37697;52.588;13.394;2024-01-10T15:12:44;102757.64;;;-2.99;68.63
51617;BME280;37697;52.588;13.394;2024-01-10T15:18:09;102766.17;;;-3.15;68.82
51617;BME280;37697;52.588;13.394;2024-01-10T15:23:35;102763.00;;;-3.33;68.81
51617;BME280;37697;52.588;13.394;2024-01-10T15:29:01;102767.35;;;-3.46;69.16
51617;BME280;37697;52.588;13.394;2024-01-10T15:34:27;102769.43;;;-3.55;69.69
51617;BME280;37697;52.588;13.394;2024-01-10T15:39:52;102770.08;;;-3.61;70.24
51617;BME280;37697;52.588;13.394;2024-01-10T15:45:19;102777.36;;;-3.69;70.23
51617;BME280;37697;52.588;13.394;2024-01-10T15:50:44;102776.00;;;-3.77;70.84
51617;BME280;37697;52.588;13.394;2024-01-10T15:56:10;102776.24;;;-3.85;70.88
51617;BME280;37697;52.588;13.394;2024-01-10T16:01:36;102773.68;;;-3.91;71.36
51617;BME280;37697;52.588;13.394;2024-01-10T16:07:02;102773.37;;;-3.97;71.66
51617;BME280;37697;52.588;13.394;2024-01-10T16:12:28;102773.22;;;-4.08;71.60
51617;BME280;37697;52.588;13.394;2024-01-10T16:17:54;102775.90;;;-4.17;72.03
51617;BME280;37697;52.588;13.394;2024-01-10T16:23:20;102779.55;;;-4.28;71.99
51617;BME280;37697;52.588;13.394;2024-01-10T16:28:45;102777.27;;;-4.41;72.37
51617;BME280;37697;52.588;13.394;2024-01-10T16:34:11;102773.71;;;-4.54;72.46
51617;BME280;37697;52.588;13.394;2024-01-10T16:39:37;102770.02;;;-4.67;72.64
51617;BME280;37697;52.588;13.394;2024-01-10T16:45:04;102768.88;;;-4.78;73.01
51617;BME280;37697;52.588;13.394;2024-01-10T16:50:22;102766.85;;;-4.88;73.24
51617;BME280;37697;52.588;13.394;2024-01-10T16:55:48;102763.52;;;-4.98;73.54
51617;BME280;37697;52.588;13.394;2024-01-10T17:01:14;102765.62;;;-5.08;73.62
51617;BME280;37697;52.588;13.394;2024-01-10T17:06:40;102758.10;;;-5.19;73.97
51617;BME280;37697;52.588;13.394;2024-01-10T17:12:07;102749.67;;;-5.27;74.02
51617;BME280;37697;52.588;13.394;2024-01-10T17:17:33;102742.47;;;-5.39;74.22
51617;BME280;37697;52.588;13.394;2024-01-10T17:22:59;102740.43;;;-5.52;74.36
51617;BME280;37697;52.588;13.394;2024-01-10T17:28:25;102734.62;;;-5.65;74.59
51617;BME280;37697;52.588;13.394;2024-01-10T17:33:52;102743.52;;;-5.77;74.86
51617;BME280;37697;52.588;13.394;2024-01-10T17:39:18;102740.23;;;-5.85;75.14
51617;BME280;37697;52.588;13.394;2024-01-10T17:44:44;102735.93;;;-5.96;75.26
51617;BME280;37697;52.588;13.394;2024-01-10T17:49:59;102730.41;;;-6.04;75.39
51617;BME280;37697;52.588;13.394;2024-01-10T17:55:25;102727.25;;;-6.14;75.71
51617;BME280;37697;52.588;13.394;2024-01-10T18:00:50;102723.35;;;-6.22;75.77
51617;BME280;37697;52.588;13.394;2024-01-10T18:06:16;102724.86;;;-6.29;76.13
51617;BME280;37697;52.588;13.394;2024-01-10T18:11:27;102716.40;;;-6.38;76.34
51617;BME280;37697;52.588;13.394;2024-01-10T18:16:53;102722.73;;;-6.48;76.49
51617;BME280;37697;52.588;13.394;2024-01-10T18:22:19;102725.91;;;-6.56;76.58
51617;BME280;37697;52.588;13.394;2024-01-10T18:27:37;102722.53;;;-6.64;76.70
51617;BME280;37697;52.588;13.394;2024-01-10T18:33:03;102724.10;;;-6.69;76.86
51617;BME280;37697;52.588;13.394;2024-01-10T18:38:29;102717.46;;;-6.75;76.87
51617;BME280;37697;52.588;13.394;2024-01-10T18:43:55;102715.66;;;-6.80;77.21
51617;BME280;37697;52.588;13.394;2024-01-10T18:49:23;102716.85;;;-6.88;77.18
51617;BME280;37697;52.588;13.394;2024-01-10T18:54:42;102719.55;;;-7.02;77.29
51617;BME280;37697;52.588;13.394;2024-01-10T18:59:57;102719.33;;;-7.11;77.80
51617;BME280;37697;52.588;13.394;2024-01-10T19:05:23;102719.42;;;-7.16;77.98
51617;BME280;37697;52.588;13.394;2024-01-10T19:10:49;102719.50;;;-7.23;77.84
51617;BME280;37697;52.588;13.394;2024-01-10T19:16:14;102718.66;;;-7.28;78.17
51617;BME280;37697;52.588;13.394;2024-01-10T19:21:40;102717.10;;;-7.34;78.69
51617;BME280;37697;52.588;13.394;2024-01-10T19:27:06;102717.00;;;-7.39;78.74
51617;BME280;37697;52.588;13.394;2024-01-10T19:32:31;102720.41;;;-7.46;78.52
51617;BME280;37697;52.588;13.394;2024-01-10T19:37:57;102729.78;;;-7.55;78.64
51617;BME280;37697;52.588;13.394;2024-01-10T19:43:26;102737.46;;;-7.61;78.97
51617;BME280;37697;52.588;13.394;2024-01-10T19:48:52;102742.23;;;-7.67;79.35
51617;BME280;37697;52.588;13.394;2024-01-10T19:54:18;102744.40;;;-7.71;79.10
51617;BME280;37697;52.588;13.394;2024-01-10T19:59:23;102749.62;;;-7.80;78.97
51617;BME280;37697;52.588;13.394;2024-01-10T20:04:49;102751.14;;;-7.85;79.54
51617;BME280;37697;52.588;13.394;2024-01-10T20:09:57;102748.00;;;-7.88;79.72
51617;BME280;37697;52.588;13.394;2024-01-10T20:15:14;102747.27;;;-7.94;79.69
51617;BME280;37697;52.588;13.394;2024-01-10T20:20:40;102743.16;;;-7.98;79.79
51617;BME280;37697;52.588;13.394;2024-01-10T20:25:55;102737.53;;;-8.03;79.76
51617;BME280;37697;52.588;13.394;2024-01-10T20:31:00;102734.93;;;-8.17;79.78
51617;BME280;37697;52.588;13.394;2024-01-10T20:36:17;102749.34;;;-8.27;80.71
51617;BME280;37697;52.588;13.394;2024-01-10T20:41:42;102761.31;;;-8.27;80.99
51617;BME280;37697;52.588;13.394;2024-01-10T20:47:08;102757.10;;;-8.26;80.96
51617;BME280;37697;52.588;13.394;2024-01-10T20:52:27;102758.31;;;-8.27;81.03
51617;BME280;37697;52.588;13.394;2024-01-10T20:57:41;102765.86;;;-8.30;81.02
51617;BME280;37697;52.588;13.394;2024-01-10T21:02:59;102771.31;;;-8.34;80.71
51617;BME280;37697;52.588;13.394;2024-01-10T21:08:25;102779.95;;;-8.39;81.39
51617;BME280;37697;52.588;13.394;2024-01-10T21:13:51;102788.44;;;-8.42;81.64
51617;BME280;37697;52.588;13.394;2024-01-10T21:19:17;102780.55;;;-8.44;81.31
51617;BME280;37697;52.588;13.394;2024-01-10T21:24:25;102774.13;;;-8.50;81.49
51617;BME280;37697;52.588;13.394;2024-01-10T21:29:51;102773.28;;;-8.55;81.95
51617;BME280;37697;52.588;13.394;2024-01-10T21:35:17;102773.16;;;-8.62;82.04
51617;BME280;37697;52.588;13.394;2024-01-10T21:40:42;102768.61;;;-8.65;82.06
51617;BME280;37697;52.588;13.394;2024-01-10T21:46:02;102763.85;;;-8.68;81.87
51617;BME280;37697;52.588;13.394;2024-01-10T21:51:27;102753.70;;;-8.72;82.22
51617;BME280;37697;52.588;13.394;2024-01-10T21:56:42;102763.67;;;-8.79;82.58
51617;BME280;37697;52.588;13.394;2024-01-10T22:02:08;102761.65;;;-8.82;82.53
51617;BME280;37697;52.588;13.394;2024-01-10T22:07:34;102761.10;;;-8.86;82.50
51617;BME280;37697;52.588;13.394;2024-01-10T22:13:00;102781.88;;;-8.92;82.56
51617;BME280;37697;52.588;13.394;2024-01-10T22:18:26;102773.61;;;-8.96;83.06
51617;BME280;37697;52.588;13.394;2024-01-10T22:23:52;102770.35;;;-8.98;83.03
51617;BME280;37697;52.588;13.394;2024-01-10T22:29:17;102768.64;;;-9.03;82.86
51617;BME280;37697;52.588;13.394;2024-01-10T22:34:33;102759.91;;;-9.07;82.76
51617;BME280;37697;52.588;13.394;2024-01-10T22:39:59;102768.91;;;-9.12;83.52
51617;BME280;37697;52.588;13.394;2024-01-10T22:45:25;102768.98;;;-9.18;83.83
51617;BME280;37697;52.588;13.394;2024-01-10T22:50:51;102761.16;;;-9.18;83.50
51617;BME280;37697;52.588;13.394;2024-01-10T22:56:09;102755.00;;;-9.19;83.69
51617;BME280;37697;52.588;13.394;2024-01-10T23:01:35;102745.30;;;-9.24;83.76
51617;BME280;37697;52.588;13.394;2024-01-10T23:07:00;102739.23;;;-9.24;84.01
51617;BME280;37697;52.588;13.394;2024-01-10T23:12:26;102750.07;;;-9.26;83.68
51617;BME280;37697;52.588;13.394;2024-01-10T23:17:52;102744.15;;;-9.28;83.85
51617;BME280;37697;52.588;13.394;2024-01-10T23:23:18;102750.70;;;-9.32;83.96
51617;BME280;37697;52.588;13.394;2024-01-10T23:28:44;102746.41;;;-9.34;84.12
51617;BME280;37697;52.588;13.394;2024-01-10T23:34:09;102739.36;;;-9.33;84.42
51617;BME280;37697;52.588;13.394;2024-01-10T23:39:35;102734.79;;;-9.28;85.24
51617;BME280;37697;52.588;13.394;2024-01-10T23:45:01;102718.31;;;-9.21;85.96
51617;BME280;37697;52.588;13.394;2024-01-10T23:50:27;102712.69;;;-9.13;86.36
51617;BME280;37697;52.588;13.394;2024-01-10T23:55:53;102705.76;;;-9.06;87.07
